sensor_id;sensor_type;location;lat;lon;timestamp;P1;durP1;ratioP1;P2;durP2;ratioP2
33794;SDS011;51430;52.242;21.118;2023-02-01T00:02:09;11.90;;;10.70;;
33794;SDS011;51430;52.242;21.118;2023-02-01T00:04:56;12.60;;;11.50;;
33794;SDS011;51430;52.242;21.118;2023-02-01T00:08:02;12.50;;;11.30;;
33794;SDS011;51430;52.242;21.118;2023-02-01T00:10:48;11.70;;;10.70;;
33794;SDS011;51430;52.242;21.118;2023-02-01T00:13:35;12.30;;;11.20;;
33794;SDS011;51430;52.242;21.118;2023-02-01T00:16:25;12.40;;;11.30;;
33794;SDS011;51430;52.242;21.118;2023-02-01T00:19:14;12.90;;;11.70;;
33794;SDS011;51430;52.242;21.118;2023-02-01T00:22:01;11.80;;;10.70;;
33794;SDS011;51430;52.242;21.118;2023-02-01T00:24:47;11.00;;;9.90;;
33794;SDS011;51430;52.242;21.118;2023-02-01T00:27:34;10.80;;;9.80;;
33794;SDS011;51430;52.242;21.118;2023-02-01T00:30:21;10.40;;;9.30;;
33794;SDS011;51430;52.242;21.118;2023-02-01T00:36:22;8.70;;;7.90;;
33794;SDS011;51430;52.242;21.118;2023-02-01T00:39:09;7.70;;;7.00;;
33794;SDS011;51430;52.242;21.118;2023-02-01T00:41:56;7.90;;;7.20;;
33794;SDS011;51430;52.242;21.118;2023-02-01T00:44:42;7.40;;;6.70;;
33794;SDS011;51430;52.242;21.118;2023-02-01T00:47:29;6.40;;;5.80;;
33794;SDS011;51430;52.242;21.118;2023-02-01T00:50:16;6.10;;;5.20;;
33794;SDS011;51430;52.242;21.118;2023-02-01T00:53:03;5.50;;;5.00;;
33794;SDS011;51430;52.242;21.118;2023-02-01T00:55:49;4.90;;;4.40;;
33794;SDS011;51430;52.242;21.118;2023-02-01T00:58:36;5.70;;;4.30;;
33794;SDS011;51430;52.242;21.118;2023-02-01T01:02:36;8.30;;;4.30;;
33794;SDS011;51430;52.242;21.118;2023-02-01T01:06:32;4.40;;;3.90;;
33794;SDS011;51430;52.242;21.118;2023-02-01T01:10:30;4.20;;;3.30;;
33794;SDS011;51430;52.242;21.118;2023-02-01T01:13:17;4.90;;;3.30;;
33794;SDS011;51430;52.242;21.118;2023-02-01T01:16:13;5.90;;;3.40;;
33794;SDS011;51430;52.242;21.118;2023-02-01T01:19:00;4.50;;;2.80;;
33794;SDS011;51430;52.242;21.118;2023-02-01T01:21:47;4.70;;;2.90;;
33794;SDS011;51430;52.242;21.118;2023-02-01T01:25:46;5.00;;;2.40;;
33794;SDS011;51430;52.242;21.118;2023-02-01T01:29:54;4.60;;;2.40;;
33794;SDS011;51430;52.242;21.118;2023-02-01T01:33:21;5.10;;;1.90;;
33794;SDS011;51430;52.242;21.118;2023-02-01T01:37:20;2.40;;;1.70;;
33794;SDS011;51430;52.242;21.118;2023-02-01T01:41:35;6.10;;;2.20;;
33794;SDS011;51430;52.242;21.118;2023-02-01T01:47:44;4.10;;;1.90;;
33794;SDS011;51430;52.242;21.118;2023-02-01T01:53:57;5.70;;;1.90;;
33794;SDS011;51430;52.242;21.118;2023-02-01T01:57:17;3.10;;;1.50;;
33794;SDS011;51430;52.242;21.118;2023-02-01T02:00:09;5.20;;;2.10;;
33794;SDS011;51430;52.242;21.118;2023-02-01T02:02:58;5.70;;;2.30;;
33794;SDS011;51430;52.242;21.118;2023-02-01T02:05:48;9.00;;;2.40;;
33794;SDS011;51430;52.242;21.118;2023-02-01T02:08:35;5.70;;;2.20;;
33794;SDS011;51430;52.242;21.118;2023-02-01T02:11:20;6.70;;;2.30;;
33794;SDS011;51430;52.242;21.118;2023-02-01T02:14:06;7.90;;;2.50;;
33794;SDS011;51430;52.242;21.118;2023-02-01T02:26:29;8.30;;;2.90;;
33794;SDS011;51430;52.242;21.118;2023-02-01T02:45:19;8.70;;;2.80;;
33794;SDS011;51430;52.242;21.118;2023-02-01T02:48:34;8.20;;;2.90;;
33794;SDS011;51430;52.242;21.118;2023-02-01T02:55:07;12.10;;;3.60;;
33794;SDS011;51430;52.242;21.118;2023-02-01T02:57:53;11.00;;;3.10;;
33794;SDS011;51430;52.242;21.118;2023-02-01T03:00:59;8.50;;;3.30;;
33794;SDS011;51430;52.242;21.118;2023-02-01T03:04:05;11.70;;;3.40;;
33794;SDS011;51430;52.242;21.118;2023-02-01T03:06:54;9.70;;;3.00;;
33794;SDS011;51430;52.242;21.118;2023-02-01T03:09:41;10.40;;;3.30;;
33794;SDS011;51430;52.242;21.118;2023-02-01T03:12:33;14.70;;;3.50;;
33794;SDS011;51430;52.242;21.118;2023-02-01T03:16:24;9.40;;;3.40;;
33794;SDS011;51430;52.242;21.118;2023-02-01T03:18:57;10.40;;;3.40;;
33794;SDS011;51430;52.242;21.118;2023-02-01T03:21:52;9.40;;;3.10;;
33794;SDS011;51430;52.242;21.118;2023-02-01T03:24:44;11.50;;;3.40;;
33794;SDS011;51430;52.242;21.118;2023-02-01T03:27:34;9.80;;;3.00;;
33794;SDS011;51430;52.242;21.118;2023-02-01T03:30:26;11.00;;;3.10;;
33794;SDS011;51430;52.242;21.118;2023-02-01T03:33:17;13.90;;;3.40;;
33794;SDS011;51430;52.242;21.118;2023-02-01T03:39:19;10.60;;;2.90;;
33794;SDS011;51430;52.242;21.118;2023-02-01T03:42:14;10.80;;;3.20;;
33794;SDS011;51430;52.242;21.118;2023-02-01T03:47:55;10.60;;;3.20;;
33794;SDS011;51430;52.242;21.118;2023-02-01T03:50:46;12.30;;;3.30;;
33794;SDS011;51430;52.242;21.118;2023-02-01T03:53:35;12.20;;;2.90;;
33794;SDS011;51430;52.242;21.118;2023-02-01T03:56:22;11.80;;;3.30;;
33794;SDS011;51430;52.242;21.118;2023-02-01T03:59:10;13.20;;;3.50;;
33794;SDS011;51430;52.242;21.118;2023-02-01T04:01:56;11.90;;;3.40;;
33794;SDS011;51430;52.242;21.118;2023-02-01T04:04:42;11.70;;;3.40;;
33794;SDS011;51430;52.242;21.118;2023-02-01T04:07:27;10.70;;;3.40;;
33794;SDS011;51430;52.242;21.118;2023-02-01T04:10:12;11.70;;;3.70;;
33794;SDS011;51430;52.242;21.118;2023-02-01T04:16:12;13.40;;;4.10;;
33794;SDS011;51430;52.242;21.118;2023-02-01T04:18:58;13.40;;;3.50;;
33794;SDS011;51430;52.242;21.118;2023-02-01T04:21:43;15.30;;;3.80;;
33794;SDS011;51430;52.242;21.118;2023-02-01T04:24:31;14.00;;;3.70;;
33794;SDS011;51430;52.242;21.118;2023-02-01T04:27:17;13.60;;;3.90;;
33794;SDS011;51430;52.242;21.118;2023-02-01T04:30:04;12.60;;;3.80;;
33794;SDS011;51430;52.242;21.118;2023-02-01T04:32:54;10.80;;;3.60;;
33794;SDS011;51430;52.242;21.118;2023-02-01T04:35:39;11.90;;;3.80;;
33794;SDS011;51430;52.242;21.118;2023-02-01T04:38:25;10.60;;;3.70;;
33794;SDS011;51430;52.242;21.118;2023-02-01T04:41:11;14.90;;;3.70;;
33794;SDS011;51430;52.242;21.118;2023-02-01T04:43:56;11.00;;;3.40;;
33794;SDS011;51430;52.242;21.118;2023-02-01T04:46:42;12.50;;;3.50;;
33794;SDS011;51430;52.242;21.118;2023-02-01T04:49:27;12.80;;;3.90;;
33794;SDS011;51430;52.242;21.118;2023-02-01T04:52:12;13.00;;;3.50;;
33794;SDS011;51430;52.242;21.118;2023-02-01T04:54:58;11.40;;;3.30;;
33794;SDS011;51430;52.242;21.118;2023-02-01T04:57:44;14.40;;;3.80;;
33794;SDS011;51430;52.242;21.118;2023-02-01T05:00:30;9.10;;;3.20;;
33794;SDS011;51430;52.242;21.118;2023-02-01T05:03:18;13.00;;;3.30;;
33794;SDS011;51430;52.242;21.118;2023-02-01T05:06:03;11.30;;;3.40;;
33794;SDS011;51430;52.242;21.118;2023-02-01T05:08:49;9.70;;;3.30;;
33794;SDS011;51430;52.242;21.118;2023-02-01T05:11:34;14.50;;;3.60;;
33794;SDS011;51430;52.242;21.118;2023-02-01T05:14:38;12.40;;;3.20;;
33794;SDS011;51430;52.242;21.118;2023-02-01T05:17:23;14.30;;;3.50;;
33794;SDS011;51430;52.242;21.118;2023-02-01T05:20:08;13.90;;;3.50;;
33794;SDS011;51430;52.242;21.118;2023-02-01T05:22:54;11.90;;;3.50;;
33794;SDS011;51430;52.242;21.118;2023-02-01T05:25:39;13.60;;;3.60;;
33794;SDS011;51430;52.242;21.118;2023-02-01T05:28:24;12.80;;;3.50;;
33794;SDS011;51430;52.242;21.118;2023-02-01T05:31:10;12.20;;;3.50;;
33794;SDS011;51430;52.242;21.118;2023-02-01T05:33:56;10.80;;;3.40;;
33794;SDS011;51430;52.242;21.118;2023-02-01T05:36:41;11.40;;;3.80;;
33794;SDS011;51430;52.242;21.118;2023-02-01T05:39:29;14.70;;;3.70;;
33794;SDS011;51430;52.242;21.118;2023-02-01T05:42:15;12.70;;;3.30;;
33794;SDS011;51430;52.242;21.118;2023-02-01T05:45:01;12.20;;;3.30;;
33794;SDS011;51430;52.242;21.118;2023-02-01T05:47:47;17.40;;;4.10;;
33794;SDS011;51430;52.242;21.118;2023-02-01T05:51:52;13.10;;;3.30;;
33794;SDS011;51430;52.242;21.118;2023-02-01T05:55:08;11.60;;;3.40;;
33794;SDS011;51430;52.242;21.118;2023-02-01T05:59:08;10.80;;;3.00;;
33794;SDS011;51430;52.242;21.118;2023-02-01T06:01:55;15.20;;;4.00;;
33794;SDS011;51430;52.242;21.118;2023-02-01T06:04:42;13.30;;;3.70;;
33794;SDS011;51430;52.242;21.118;2023-02-01T06:07:29;11.20;;;3.40;;
33794;SDS011;51430;52.242;21.118;2023-02-01T06:10:16;12.30;;;3.30;;
33794;SDS011;51430;52.242;21.118;2023-02-01T06:13:05;13.80;;;4.00;;
33794;SDS011;51430;52.242;21.118;2023-02-01T06:15:51;14.60;;;3.60;;
33794;SDS011;51430;52.242;21.118;2023-02-01T06:18:38;14.40;;;3.80;;
33794;SDS011;51430;52.242;21.118;2023-02-01T06:21:25;11.80;;;3.70;;
33794;SDS011;51430;52.242;21.118;2023-02-01T06:24:12;13.80;;;3.60;;
33794;SDS011;51430;52.242;21.118;2023-02-01T06:26:59;13.60;;;3.70;;
33794;SDS011;51430;52.242;21.118;2023-02-01T06:29:45;13.70;;;3.50;;
33794;SDS011;51430;52.242;21.118;2023-02-01T06:32:32;12.20;;;3.50;;
33794;SDS011;51430;52.242;21.118;2023-02-01T06:35:19;12.00;;;3.60;;
33794;SDS011;51430;52.242;21.118;2023-02-01T06:38:06;14.50;;;3.90;;
33794;SDS011;51430;52.242;21.118;2023-02-01T06:40:53;14.50;;;3.70;;
33794;SDS011;51430;52.242;21.118;2023-02-01T06:43:40;14.00;;;4.10;;
33794;SDS011;51430;52.242;21.118;2023-02-01T06:46:26;13.90;;;4.00;;
33794;SDS011;51430;52.242;21.118;2023-02-01T06:49:13;13.00;;;3.60;;
33794;SDS011;51430;52.242;21.118;2023-02-01T06:51:59;15.10;;;3.70;;
33794;SDS011;51430;52.242;21.118;2023-02-01T06:55:03;10.90;;;2.90;;
33794;SDS011;51430;52.242;21.118;2023-02-01T06:59:18;11.00;;;3.60;;
33794;SDS011;51430;52.242;21.118;2023-02-01T07:02:36;8.70;;;3.20;;
33794;SDS011;51430;52.242;21.118;2023-02-01T07:06:36;12.00;;;3.80;;
33794;SDS011;51430;52.242;21.118;2023-02-01T07:10:33;12.50;;;3.20;;
33794;SDS011;51430;52.242;21.118;2023-02-01T07:13:21;10.70;;;3.70;;
33794;SDS011;51430;52.242;21.118;2023-02-01T07:16:09;14.20;;;3.90;;
33794;SDS011;51430;52.242;21.118;2023-02-01T07:18:57;14.00;;;4.30;;
33794;SDS011;51430;52.242;21.118;2023-02-01T07:21:45;12.20;;;3.80;;
33794;SDS011;51430;52.242;21.118;2023-02-01T07:24:33;14.80;;;4.20;;
33794;SDS011;51430;52.242;21.118;2023-02-01T07:27:51;15.30;;;3.60;;
33794;SDS011;51430;52.242;21.118;2023-02-01T07:31:10;12.50;;;3.40;;
33794;SDS011;51430;52.242;21.118;2023-02-01T07:35:12;11.00;;;3.10;;
33794;SDS011;51430;52.242;21.118;2023-02-01T07:38:00;12.50;;;4.20;;
33794;SDS011;51430;52.242;21.118;2023-02-01T07:40:46;13.20;;;3.70;;
33794;SDS011;51430;52.242;21.118;2023-02-01T07:43:32;13.00;;;4.10;;
33794;SDS011;51430;52.242;21.118;2023-02-01T07:46:22;14.90;;;4.20;;
33794;SDS011;51430;52.242;21.118;2023-02-01T07:49:09;15.40;;;4.10;;
33794;SDS011;51430;52.242;21.118;2023-02-01T07:51:56;11.60;;;3.90;;
33794;SDS011;51430;52.242;21.118;2023-02-01T07:54:42;14.10;;;4.10;;
33794;SDS011;51430;52.242;21.118;2023-02-01T07:57:29;14.80;;;4.40;;
33794;SDS011;51430;52.242;21.118;2023-02-01T08:00:16;16.70;;;4.40;;
33794;SDS011;51430;52.242;21.118;2023-02-01T08:03:34;12.20;;;3.50;;
33794;SDS011;51430;52.242;21.118;2023-02-01T08:07:49;14.80;;;3.90;;
33794;SDS011;51430;52.242;21.118;2023-02-01T08:13:48;13.30;;;4.20;;
33794;SDS011;51430;52.242;21.118;2023-02-01T08:16:34;17.30;;;4.90;;
33794;SDS011;51430;52.242;21.118;2023-02-01T08:21:24;15.10;;;4.40;;
33794;SDS011;51430;52.242;21.118;2023-02-01T08:25:33;15.80;;;4.00;;
33794;SDS011;51430;52.242;21.118;2023-02-01T08:29:35;13.20;;;3.90;;
33794;SDS011;51430;52.242;21.118;2023-02-01T08:32:21;14.20;;;4.10;;
33794;SDS011;51430;52.242;21.118;2023-02-01T08:35:08;14.60;;;4.10;;
33794;SDS011;51430;52.242;21.118;2023-02-01T08:37:55;15.50;;;4.40;;
33794;SDS011;51430;52.242;21.118;2023-02-01T08:40:44;15.10;;;4.60;;
33794;SDS011;51430;52.242;21.118;2023-02-01T08:43:33;14.40;;;4.40;;
33794;SDS011;51430;52.242;21.118;2023-02-01T08:46:31;13.40;;;3.70;;
33794;SDS011;51430;52.242;21.118;2023-02-01T08:50:27;8.30;;;3.60;;
33794;SDS011;51430;52.242;21.118;2023-02-01T08:54:21;13.80;;;3.90;;
33794;SDS011;51430;52.242;21.118;2023-02-01T08:58:17;15.30;;;4.20;;
33794;SDS011;51430;52.242;21.118;2023-02-01T09:02:16;14.80;;;4.20;;
33794;SDS011;51430;52.242;21.118;2023-02-01T09:06:16;12.00;;;3.80;;
33794;SDS011;51430;52.242;21.118;2023-02-01T09:10:33;12.50;;;3.60;;
33794;SDS011;51430;52.242;21.118;2023-02-01T09:13:49;17.20;;;4.10;;
33794;SDS011;51430;52.242;21.118;2023-02-01T09:17:46;12.20;;;3.60;;
33794;SDS011;51430;52.242;21.118;2023-02-01T09:21:43;17.40;;;4.50;;
33794;SDS011;51430;52.242;21.118;2023-02-01T09:25:40;11.20;;;3.90;;
33794;SDS011;51430;52.242;21.118;2023-02-01T09:28:27;12.70;;;4.20;;
33794;SDS011;51430;52.242;21.118;2023-02-01T09:31:14;11.70;;;4.50;;
33794;SDS011;51430;52.242;21.118;2023-02-01T09:34:01;14.00;;;4.60;;
33794;SDS011;51430;52.242;21.118;2023-02-01T09:36:49;15.40;;;4.30;;
33794;SDS011;51430;52.242;21.118;2023-02-01T09:39:35;13.80;;;4.10;;
33794;SDS011;51430;52.242;21.118;2023-02-01T09:43:06;12.50;;;4.40;;
33794;SDS011;51430;52.242;21.118;2023-02-01T09:50:33;12.00;;;3.60;;
33794;SDS011;51430;52.242;21.118;2023-02-01T09:56:59;13.50;;;4.50;;
33794;SDS011;51430;52.242;21.118;2023-02-01T09:59:57;12.10;;;4.20;;
33794;SDS011;51430;52.242;21.118;2023-02-01T10:02:53;13.40;;;4.20;;
33794;SDS011;51430;52.242;21.118;2023-02-01T10:18:07;12.30;;;4.40;;
33794;SDS011;51430;52.242;21.118;2023-02-01T10:24:32;14.20;;;4.50;;
33794;SDS011;51430;52.242;21.118;2023-02-01T10:27:33;14.40;;;4.60;;
33794;SDS011;51430;52.242;21.118;2023-02-01T10:30:38;14.00;;;4.30;;
33794;SDS011;51430;52.242;21.118;2023-02-01T10:33:34;15.20;;;4.60;;
33794;SDS011;51430;52.242;21.118;2023-02-01T10:36:31;14.00;;;4.70;;
33794;SDS011;51430;52.242;21.118;2023-02-01T10:39:24;13.50;;;4.40;;
33794;SDS011;51430;52.242;21.118;2023-02-01T10:42:12;11.20;;;3.70;;
33794;SDS011;51430;52.242;21.118;2023-02-01T10:44:59;16.10;;;4.80;;
33794;SDS011;51430;52.242;21.118;2023-02-01T10:47:49;12.30;;;4.20;;
33794;SDS011;51430;52.242;21.118;2023-02-01T10:50:38;15.90;;;4.60;;
33794;SDS011;51430;52.242;21.118;2023-02-01T10:53:29;12.90;;;5.30;;
33794;SDS011;51430;52.242;21.118;2023-02-01T10:56:22;13.50;;;4.40;;
33794;SDS011;51430;52.242;21.118;2023-02-01T10:59:17;13.20;;;4.00;;
33794;SDS011;51430;52.242;21.118;2023-02-01T11:02:19;12.70;;;4.10;;
33794;SDS011;51430;52.242;21.118;2023-02-01T11:05:14;11.20;;;4.20;;
33794;SDS011;51430;52.242;21.118;2023-02-01T11:08:02;13.40;;;5.00;;
33794;SDS011;51430;52.242;21.118;2023-02-01T11:10:49;12.30;;;4.70;;
33794;SDS011;51430;52.242;21.118;2023-02-01T11:14:00;14.60;;;4.10;;
33794;SDS011;51430;52.242;21.118;2023-02-01T11:16:58;14.30;;;4.70;;
33794;SDS011;51430;52.242;21.118;2023-02-01T11:19:46;13.30;;;4.90;;
33794;SDS011;51430;52.242;21.118;2023-02-01T11:22:45;12.70;;;4.70;;
33794;SDS011;51430;52.242;21.118;2023-02-01T11:25:34;16.20;;;4.70;;
33794;SDS011;51430;52.242;21.118;2023-02-01T11:28:26;12.90;;;4.90;;
33794;SDS011;51430;52.242;21.118;2023-02-01T11:31:17;13.30;;;4.80;;
33794;SDS011;51430;52.242;21.118;2023-02-01T11:34:06;15.20;;;5.00;;
33794;SDS011;51430;52.242;21.118;2023-02-01T11:37:17;12.70;;;4.40;;
33794;SDS011;51430;52.242;21.118;2023-02-01T11:40:26;11.90;;;4.20;;
33794;SDS011;51430;52.242;21.118;2023-02-01T11:46:18;10.50;;;4.10;;
33794;SDS011;51430;52.242;21.118;2023-02-01T11:49:25;13.00;;;4.20;;
33794;SDS011;51430;52.242;21.118;2023-02-01T11:52:27;12.40;;;4.20;;
33794;SDS011;51430;52.242;21.118;2023-02-01T11:56:08;12.80;;;4.50;;
33794;SDS011;51430;52.242;21.118;2023-02-01T12:30:03;13.10;;;4.70;;
33794;SDS011;51430;52.242;21.118;2023-02-01T12:43:34;13.30;;;5.00;;
33794;SDS011;51430;52.242;21.118;2023-02-01T12:46:27;15.00;;;5.20;;
33794;SDS011;51430;52.242;21.118;2023-02-01T12:49:21;13.30;;;5.40;;
33794;SDS011;51430;52.242;21.118;2023-02-01T12:52:15;14.70;;;5.30;;
33794;SDS011;51430;52.242;21.118;2023-02-01T13:01:42;13.30;;;5.20;;
33794;SDS011;51430;52.242;21.118;2023-02-01T13:04:49;15.40;;;5.40;;
33794;SDS011;51430;52.242;21.118;2023-02-01T13:08:00;16.10;;;5.50;;
33794;SDS011;51430;52.242;21.118;2023-02-01T13:13:52;17.80;;;5.70;;
33794;SDS011;51430;52.242;21.118;2023-02-01T13:17:00;16.40;;;5.70;;
33794;SDS011;51430;52.242;21.118;2023-02-01T13:22:58;15.70;;;5.60;;
33794;SDS011;51430;52.242;21.118;2023-02-01T13:25:50;13.00;;;4.60;;
33794;SDS011;51430;52.242;21.118;2023-02-01T13:32:13;14.90;;;4.70;;
33794;SDS011;51430;52.242;21.118;2023-02-01T13:42:24;15.50;;;5.00;;
33794;SDS011;51430;52.242;21.118;2023-02-01T13:45:19;18.90;;;5.50;;
33794;SDS011;51430;52.242;21.118;2023-02-01T13:48:14;16.10;;;5.40;;
33794;SDS011;51430;52.242;21.118;2023-02-01T13:51:06;12.10;;;4.50;;
33794;SDS011;51430;52.242;21.118;2023-02-01T13:53:54;13.40;;;4.60;;
33794;SDS011;51430;52.242;21.118;2023-02-01T13:56:41;13.20;;;4.70;;
33794;SDS011;51430;52.242;21.118;2023-02-01T14:08:15;11.10;;;4.00;;
33794;SDS011;51430;52.242;21.118;2023-02-01T14:23:21;12.80;;;4.40;;
33794;SDS011;51430;52.242;21.118;2023-02-01T14:26:12;10.60;;;4.80;;
33794;SDS011;51430;52.242;21.118;2023-02-01T14:29:17;10.20;;;4.70;;
33794;SDS011;51430;52.242;21.118;2023-02-01T14:35:19;10.10;;;4.20;;
33794;SDS011;51430;52.242;21.118;2023-02-01T14:38:11;8.60;;;4.30;;
33794;SDS011;51430;52.242;21.118;2023-02-01T14:44:23;10.00;;;4.90;;
33794;SDS011;51430;52.242;21.118;2023-02-01T14:56:06;10.10;;;4.30;;
33794;SDS011;51430;52.242;21.118;2023-02-01T15:01:53;11.90;;;4.30;;
33794;SDS011;51430;52.242;21.118;2023-02-01T15:04:43;8.80;;;3.90;;
33794;SDS011;51430;52.242;21.118;2023-02-01T15:07:32;8.30;;;4.10;;
33794;SDS011;51430;52.242;21.118;2023-02-01T15:10:20;8.00;;;3.60;;
33794;SDS011;51430;52.242;21.118;2023-02-01T15:13:18;6.50;;;3.70;;
33794;SDS011;51430;52.242;21.118;2023-02-01T15:16:14;7.60;;;3.70;;
33794;SDS011;51430;52.242;21.118;2023-02-01T15:19:09;7.20;;;3.80;;
33794;SDS011;51430;52.242;21.118;2023-02-01T15:21:58;6.40;;;3.80;;
33794;SDS011;51430;52.242;21.118;2023-02-01T15:24:51;7.30;;;3.70;;
33794;SDS011;51430;52.242;21.118;2023-02-01T15:27:42;7.10;;;4.10;;
33794;SDS011;51430;52.242;21.118;2023-02-01T15:30:32;6.70;;;3.80;;
33794;SDS011;51430;52.242;21.118;2023-02-01T15:33:20;7.00;;;4.00;;
33794;SDS011;51430;52.242;21.118;2023-02-01T15:36:09;6.60;;;3.60;;
33794;SDS011;51430;52.242;21.118;2023-02-01T15:39:23;6.40;;;3.40;;
33794;SDS011;51430;52.242;21.118;2023-02-01T15:42:34;7.80;;;3.90;;
33794;SDS011;51430;52.242;21.118;2023-02-01T15:45:36;7.60;;;3.90;;
33794;SDS011;51430;52.242;21.118;2023-02-01T15:48:23;7.30;;;3.40;;
33794;SDS011;51430;52.242;21.118;2023-02-01T15:51:13;7.90;;;4.90;;
33794;SDS011;51430;52.242;21.118;2023-02-01T15:54:04;9.80;;;4.50;;
33794;SDS011;51430;52.242;21.118;2023-02-01T15:56:55;7.50;;;4.30;;
33794;SDS011;51430;52.242;21.118;2023-02-01T15:59:45;6.80;;;4.40;;
33794;SDS011;51430;52.242;21.118;2023-02-01T16:08:21;8.50;;;5.10;;
33794;SDS011;51430;52.242;21.118;2023-02-01T16:11:16;6.60;;;4.80;;
33794;SDS011;51430;52.242;21.118;2023-02-01T16:14:14;7.40;;;4.70;;
33794;SDS011;51430;52.242;21.118;2023-02-01T16:17:01;8.10;;;4.90;;
33794;SDS011;51430;52.242;21.118;2023-02-01T16:19:48;7.20;;;4.80;;
33794;SDS011;51430;52.242;21.118;2023-02-01T16:22:37;6.80;;;4.70;;
33794;SDS011;51430;52.242;21.118;2023-02-01T16:25:24;7.50;;;4.90;;
33794;SDS011;51430;52.242;21.118;2023-02-01T16:28:11;7.00;;;5.00;;
33794;SDS011;51430;52.242;21.118;2023-02-01T16:31:52;8.80;;;4.50;;
33794;SDS011;51430;52.242;21.118;2023-02-01T16:35:22;7.90;;;5.00;;
33794;SDS011;51430;52.242;21.118;2023-02-01T16:39:33;7.40;;;4.80;;
33794;SDS011;51430;52.242;21.118;2023-02-01T16:45:37;9.20;;;6.20;;
33794;SDS011;51430;52.242;21.118;2023-02-01T16:48:35;9.80;;;5.90;;
33794;SDS011;51430;52.242;21.118;2023-02-01T16:51:24;7.80;;;5.70;;
33794;SDS011;51430;52.242;21.118;2023-02-01T16:54:13;9.00;;;5.40;;
33794;SDS011;51430;52.242;21.118;2023-02-01T16:57:00;8.60;;;5.50;;
33794;SDS011;51430;52.242;21.118;2023-02-01T16:59:49;8.00;;;5.60;;
33794;SDS011;51430;52.242;21.118;2023-02-01T17:02:37;8.60;;;5.80;;
33794;SDS011;51430;52.242;21.118;2023-02-01T17:05:26;8.50;;;5.90;;
33794;SDS011;51430;52.242;21.118;2023-02-01T17:08:22;10.30;;;5.60;;
33794;SDS011;51430;52.242;21.118;2023-02-01T17:11:20;10.50;;;6.10;;
33794;SDS011;51430;52.242;21.118;2023-02-01T17:14:16;9.20;;;5.80;;
33794;SDS011;51430;52.242;21.118;2023-02-01T17:17:09;9.20;;;5.90;;
33794;SDS011;51430;52.242;21.118;2023-02-01T17:23:19;8.90;;;5.70;;
33794;SDS011;51430;52.242;21.118;2023-02-01T17:26:09;9.00;;;5.70;;
33794;SDS011;51430;52.242;21.118;2023-02-01T17:28:57;8.70;;;5.70;;
33794;SDS011;51430;52.242;21.118;2023-02-01T17:31:45;9.60;;;5.70;;
33794;SDS011;51430;52.242;21.118;2023-02-01T17:34:37;12.50;;;6.60;;
33794;SDS011;51430;52.242;21.118;2023-02-01T17:37:29;11.70;;;6.90;;
33794;SDS011;51430;52.242;21.118;2023-02-01T17:40:18;10.10;;;6.20;;
33794;SDS011;51430;52.242;21.118;2023-02-01T17:43:09;10.20;;;6.00;;
33794;SDS011;51430;52.242;21.118;2023-02-01T17:46:01;10.20;;;6.40;;
33794;SDS011;51430;52.242;21.118;2023-02-01T17:50:25;9.60;;;5.90;;
33794;SDS011;51430;52.242;21.118;2023-02-01T17:54:25;11.80;;;5.60;;
33794;SDS011;51430;52.242;21.118;2023-02-01T17:57:12;10.70;;;6.30;;
33794;SDS011;51430;52.242;21.118;2023-02-01T18:00:01;10.60;;;6.30;;
33794;SDS011;51430;52.242;21.118;2023-02-01T18:02:50;10.60;;;6.70;;
33794;SDS011;51430;52.242;21.118;2023-02-01T18:05:39;12.20;;;6.40;;
33794;SDS011;51430;52.242;21.118;2023-02-01T18:08:41;10.40;;;5.40;;
33794;SDS011;51430;52.242;21.118;2023-02-01T18:11:30;10.10;;;6.00;;
33794;SDS011;51430;52.242;21.118;2023-02-01T18:14:19;10.30;;;6.80;;
33794;SDS011;51430;52.242;21.118;2023-02-01T18:17:07;13.20;;;6.80;;
33794;SDS011;51430;52.242;21.118;2023-02-01T18:19:56;11.10;;;6.70;;
33794;SDS011;51430;52.242;21.118;2023-02-01T18:22:45;11.90;;;6.80;;
33794;SDS011;51430;52.242;21.118;2023-02-01T18:29:04;12.40;;;6.60;;
33794;SDS011;51430;52.242;21.118;2023-02-01T18:31:52;10.70;;;6.30;;
33794;SDS011;51430;52.242;21.118;2023-02-01T18:34:41;9.00;;;6.00;;
33794;SDS011;51430;52.242;21.118;2023-02-01T18:37:30;11.10;;;6.10;;
33794;SDS011;51430;52.242;21.118;2023-02-01T18:40:18;12.30;;;6.00;;
33794;SDS011;51430;52.242;21.118;2023-02-01T18:43:09;10.90;;;5.80;;
33794;SDS011;51430;52.242;21.118;2023-02-01T18:45:57;13.10;;;6.70;;
33794;SDS011;51430;52.242;21.118;2023-02-01T18:48:46;11.80;;;6.20;;
33794;SDS011;51430;52.242;21.118;2023-02-01T18:51:34;12.00;;;7.00;;
33794;SDS011;51430;52.242;21.118;2023-02-01T18:54:22;11.00;;;6.60;;
33794;SDS011;51430;52.242;21.118;2023-02-01T18:57:11;10.40;;;6.50;;
33794;SDS011;51430;52.242;21.118;2023-02-01T19:00:04;11.70;;;6.60;;
33794;SDS011;51430;52.242;21.118;2023-02-01T19:02:54;10.80;;;6.80;;
33794;SDS011;51430;52.242;21.118;2023-02-01T19:05:45;11.10;;;5.80;;
33794;SDS011;51430;52.242;21.118;2023-02-01T19:08:34;9.90;;;5.70;;
33794;SDS011;51430;52.242;21.118;2023-02-01T19:11:23;9.80;;;6.00;;
33794;SDS011;51430;52.242;21.118;2023-02-01T19:14:52;9.30;;;4.70;;
33794;SDS011;51430;52.242;21.118;2023-02-01T19:19:09;9.00;;;5.00;;
33794;SDS011;51430;52.242;21.118;2023-02-01T19:21:55;13.20;;;5.60;;
33794;SDS011;51430;52.242;21.118;2023-02-01T19:24:42;14.30;;;6.20;;
33794;SDS011;51430;52.242;21.118;2023-02-01T19:27:28;10.00;;;5.80;;
33794;SDS011;51430;52.242;21.118;2023-02-01T19:30:24;12.60;;;5.80;;
33794;SDS011;51430;52.242;21.118;2023-02-01T19:33:21;12.80;;;5.80;;
33794;SDS011;51430;52.242;21.118;2023-02-01T19:41:42;14.10;;;5.90;;
33794;SDS011;51430;52.242;21.118;2023-02-01T19:56:34;11.60;;;5.80;;
33794;SDS011;51430;52.242;21.118;2023-02-01T19:59:29;10.30;;;4.80;;
33794;SDS011;51430;52.242;21.118;2023-02-01T20:08:00;8.70;;;4.50;;
33794;SDS011;51430;52.242;21.118;2023-02-01T20:11:58;11.90;;;5.00;;
33794;SDS011;51430;52.242;21.118;2023-02-01T20:15:56;11.50;;;5.30;;
33794;SDS011;51430;52.242;21.118;2023-02-01T20:19:58;10.70;;;5.30;;
33794;SDS011;51430;52.242;21.118;2023-02-01T20:39:12;13.30;;;6.50;;
33794;SDS011;51430;52.242;21.118;2023-02-01T20:53:36;12.70;;;7.30;;
33794;SDS011;51430;52.242;21.118;2023-02-01T21:07:03;9.40;;;6.00;;
33794;SDS011;51430;52.242;21.118;2023-02-01T21:14:24;16.20;;;6.60;;
33794;SDS011;51430;52.242;21.118;2023-02-01T21:18:19;13.80;;;6.40;;
33794;SDS011;51430;52.242;21.118;2023-02-01T21:37:11;13.10;;;6.20;;
33794;SDS011;51430;52.242;21.118;2023-02-01T21:40:11;13.40;;;6.30;;
33794;SDS011;51430;52.242;21.118;2023-02-01T21:44:09;10.50;;;5.60;;
33794;SDS011;51430;52.242;21.118;2023-02-01T21:48:10;10.40;;;5.90;;
33794;SDS011;51430;52.242;21.118;2023-02-01T21:52:05;10.90;;;5.70;;
33794;SDS011;51430;52.242;21.118;2023-02-01T22:05:33;9.70;;;5.30;;
33794;SDS011;51430;52.242;21.118;2023-02-01T22:14:37;12.30;;;5.90;;
33794;SDS011;51430;52.242;21.118;2023-02-01T22:25:10;10.50;;;6.10;;
33794;SDS011;51430;52.242;21.118;2023-02-01T22:27:57;12.10;;;6.30;;
33794;SDS011;51430;52.242;21.118;2023-02-01T22:31:04;11.40;;;6.40;;
33794;SDS011;51430;52.242;21.118;2023-02-01T22:33:52;13.80;;;6.80;;
33794;SDS011;51430;52.242;21.118;2023-02-01T22:36:39;12.90;;;6.50;;
33794;SDS011;51430;52.242;21.118;2023-02-01T22:50:04;8.90;;;5.90;;
33794;SDS011;51430;52.242;21.118;2023-02-01T22:53:08;12.20;;;6.30;;